createdAt,value
2022-12-08T07:18:08.950Z,99.93
2022-12-08T07:18:44.077Z,99.77
2022-12-08T07:19:15.782Z,99.99
2022-12-08T07:19:47.412Z,99.99
2022-12-08T07:20:19.162Z,99.46
2022-12-08T07:20:50.736Z,99.15
2022-12-08T07:21:22.385Z,99.06
2022-12-08T07:21:53.928Z,99.20
2022-12-08T07:22:25.493Z,98.79
2022-12-08T07:22:57.106Z,98.81
2022-12-08T07:23:28.737Z,98.55
2022-12-08T07:24:00.353Z,98.63
2022-12-08T07:24:31.976Z,98.62
2022-12-08T07:25:03.683Z,98.63
2022-12-08T07:25:35.279Z,98.49
2022-12-08T07:26:08.611Z,98.10
2022-12-08T07:26:41.260Z,98.18
2022-12-08T07:27:12.899Z,98.29
2022-12-08T07:27:45.074Z,98.13
2022-12-08T07:28:16.699Z,98.04
2022-12-08T07:28:48.623Z,97.73
2022-12-08T07:29:24.698Z,97.58
2022-12-08T07:29:58.064Z,98.04
2022-12-08T07:30:29.838Z,98.16
2022-12-08T07:31:01.943Z,98.30
2022-12-08T07:31:34.290Z,98.09
2022-12-08T07:32:07.938Z,97.59
2022-12-08T07:32:39.773Z,97.31
2022-12-08T07:33:11.334Z,97.19
2022-12-08T07:33:43.263Z,97.04
2022-12-08T07:34:14.890Z,96.99
2022-12-08T07:34:47.365Z,97.01
2022-12-08T07:35:19.089Z,96.88
2022-12-08T07:36:06.587Z,96.71
2022-12-08T07:36:38.154Z,96.18
2022-12-08T07:37:09.774Z,96.16
2022-12-08T07:37:41.389Z,96.45
2022-12-08T07:38:13.042Z,96.27
2022-12-08T07:38:44.834Z,96.30
2022-12-08T07:39:16.521Z,96.71
2022-12-08T07:39:48.094Z,96.71
2022-12-08T07:40:19.740Z,96.52
2022-12-08T07:40:52.803Z,96.23
2022-12-08T07:41:26.371Z,95.83
2022-12-08T07:41:57.971Z,95.73
2022-12-08T07:42:29.663Z,95.60
2022-12-08T07:43:01.219Z,95.35
2022-12-08T07:43:32.882Z,95.23
2022-12-08T07:44:04.823Z,95.32
2022-12-08T07:44:36.438Z,95.11
2022-12-08T07:45:08.499Z,95.29
2022-12-08T07:45:41.408Z,95.63
2022-12-08T07:46:14.945Z,95.45
2022-12-08T07:46:46.603Z,95.45
2022-12-08T07:47:18.177Z,95.29
2022-12-08T07:51:34.035Z,95.09
2022-12-08T07:52:05.655Z,95.38
2022-12-08T07:52:37.239Z,95.69
2022-12-08T07:54:09.502Z,95.59
2022-12-08T07:54:41.124Z,95.55
2022-12-08T07:55:12.855Z,95.40
2022-12-08T07:55:44.506Z,95.20
2022-12-08T07:56:16.249Z,95.40
2022-12-08T07:56:47.940Z,95.39
2022-12-08T07:57:19.600Z,95.40
2022-12-08T08:00:40.184Z,96.11
2022-12-08T08:01:26.516Z,95.73
2022-12-08T08:02:21.300Z,95.86
2022-12-08T08:02:49.884Z,95.70
2022-12-08T08:03:22.429Z,95.32
2022-12-08T08:03:56.463Z,95.52
2022-12-08T08:04:28.107Z,96.41
2022-12-08T08:05:03.774Z,96.47
2022-12-08T08:05:35.474Z,95.89
2022-12-08T08:06:07.175Z,95.68
2022-12-08T08:06:38.863Z,95.45
2022-12-08T08:07:10.587Z,95.38
2022-12-08T08:07:43.783Z,95.39
2022-12-08T08:08:15.917Z,95.65
2022-12-08T08:08:47.799Z,96.19
2022-12-08T08:09:19.422Z,95.79
2022-12-08T08:09:50.999Z,95.25
2022-12-08T08:11:21.341Z,95.17
2022-12-08T08:12:22.250Z,95.20
2022-12-08T08:12:44.983Z,95.10
2022-12-08T08:13:16.571Z,95.10
2022-12-08T08:13:50.296Z,95.44
2022-12-08T08:14:21.915Z,95.53
2022-12-08T08:14:53.529Z,95.55
2022-12-08T08:15:25.606Z,95.46
2022-12-08T08:16:07.062Z,95.13
2022-12-08T08:16:39.072Z,95.39
2022-12-08T08:17:10.840Z,95.25
2022-12-08T08:17:42.500Z,94.90
2022-12-08T08:18:14.094Z,94.83
2022-12-08T08:18:48.895Z,94.67
2022-12-08T08:20:15.707Z,94.43
2022-12-08T08:20:47.266Z,94.06
2022-12-08T08:22:12.165Z,94.55
2022-12-08T08:22:45.756Z,94.18
2022-12-08T08:23:17.365Z,94.17
2022-12-08T08:23:49.073Z,94.41
2022-12-08T08:24:22.245Z,94.57
2022-12-08T08:24:54.357Z,94.34
2022-12-08T08:25:26.018Z,94.21
2022-12-08T08:26:02.408Z,93.87
2022-12-08T08:26:34.390Z,93.87
2022-12-08T08:27:05.986Z,93.53
2022-12-08T08:27:37.701Z,93.89
2022-12-08T08:28:09.280Z,93.98
2022-12-08T08:28:41.092Z,94.14
2022-12-08T08:29:12.695Z,94.44
2022-12-08T08:29:44.433Z,93.63
2022-12-08T08:30:20.307Z,93.53
2022-12-08T08:30:52.565Z,93.74
2022-12-08T08:31:26.014Z,93.53
2022-12-08T08:31:57.749Z,92.98
2022-12-08T08:32:33.092Z,92.92
2022-12-08T08:33:04.685Z,92.81
2022-12-08T08:33:36.318Z,93.28
2022-12-08T08:34:10.661Z,93.19
2022-12-08T08:34:42.248Z,93.12
2022-12-08T08:35:14.205Z,93.31
2022-12-08T08:35:45.792Z,93.97
2022-12-08T08:36:17.376Z,94.07
2022-12-08T08:36:49.010Z,94.12
2022-12-08T08:37:20.686Z,94.47
2022-12-08T08:37:52.340Z,94.55
2022-12-08T08:38:24.335Z,94.32
2022-12-08T08:38:55.931Z,94.21
2022-12-08T08:39:32.092Z,93.72
2022-12-08T08:40:04.289Z,93.39
2022-12-08T08:40:36.404Z,93.16
2022-12-08T08:41:09.883Z,93.00
2022-12-08T08:41:41.712Z,93.02
2022-12-08T08:42:13.292Z,93.31
2022-12-08T08:42:44.927Z,93.01
2022-12-08T08:43:37.910Z,92.45
2022-12-08T08:44:09.875Z,92.08
2022-12-08T08:44:43.201Z,91.90
2022-12-08T08:45:14.920Z,91.64
2022-12-08T08:45:46.572Z,91.74
2022-12-08T08:46:18.304Z,92.17
2022-12-08T08:46:49.963Z,91.56
2022-12-08T08:47:21.668Z,91.55
2022-12-08T08:47:53.294Z,91.40
2022-12-08T08:48:28.939Z,91.41
2022-12-08T08:49:01.275Z,91.60
2022-12-08T08:49:32.910Z,91.49
2022-12-08T08:50:05.457Z,91.45
2022-12-08T08:50:37.830Z,91.30
2022-12-08T08:51:11.131Z,91.71
2022-12-08T08:51:43.810Z,92.18
2022-12-08T08:52:15.612Z,92.65
2022-12-08T08:52:47.190Z,92.08
2022-12-08T08:53:19.114Z,91.23
2022-12-08T08:53:50.796Z,91.72
2022-12-08T08:54:22.476Z,92.28
2022-12-08T08:54:54.112Z,92.26
2022-12-08T08:55:25.742Z,92.27
2022-12-08T08:55:57.447Z,92.17
2022-12-08T08:56:29.000Z,92.14
2022-12-08T08:57:01.051Z,91.99
2022-12-08T08:57:32.614Z,91.41
2022-12-08T08:58:04.163Z,91.29
2022-12-08T08:58:35.787Z,91.72
2022-12-08T09:00:06.143Z,91.70
2022-12-08T09:00:38.199Z,91.28
2022-12-08T09:01:15.563Z,91.01
2022-12-08T09:01:47.239Z,89.99
2022-12-08T09:02:19.929Z,90.02
2022-12-08T09:02:51.693Z,89.41
2022-12-08T09:03:23.311Z,89.14
2022-12-08T09:03:55.963Z,89.03
2022-12-08T09:04:27.797Z,88.73
2022-12-08T09:04:59.811Z,88.86
2022-12-08T09:05:31.634Z,89.28
2022-12-08T09:06:03.341Z,89.65
2022-12-08T09:06:35.048Z,89.72
2022-12-08T09:07:06.693Z,89.95
2022-12-08T09:07:38.367Z,89.74
2022-12-08T09:08:10.170Z,89.25
2022-12-08T09:08:42.876Z,89.08
2022-12-08T09:09:14.675Z,88.71
2022-12-08T09:09:46.326Z,88.91
2022-12-08T09:10:17.972Z,88.58
2022-12-08T09:10:49.618Z,88.40
2022-12-08T09:11:23.390Z,88.69
2022-12-08T09:11:55.694Z,88.62
2022-12-08T09:12:27.268Z,88.28
2022-12-08T09:12:58.869Z,87.57
2022-12-08T09:13:30.448Z,87.25
2022-12-08T09:14:02.034Z,87.95
2022-12-08T09:14:33.802Z,88.03
2022-12-08T09:15:05.918Z,87.57
2022-12-08T09:15:37.604Z,87.75
2022-12-08T09:16:11.795Z,87.33
2022-12-08T09:16:43.623Z,85.94
2022-12-08T09:17:15.387Z,86.03
2022-12-08T09:17:47.063Z,85.13
2022-12-08T09:18:18.679Z,85.40
2022-12-08T09:18:50.711Z,85.49
2022-12-08T09:19:22.435Z,85.99
2022-12-08T09:19:54.092Z,86.02
2022-12-08T09:20:25.761Z,86.58
2022-12-08T09:21:03.509Z,86.32
2022-12-08T09:21:35.217Z,86.51
2022-12-08T09:22:09.590Z,86.65
2022-12-08T09:22:41.207Z,86.38
2022-12-08T09:23:12.846Z,86.76
2022-12-08T09:23:44.411Z,86.55
2022-12-08T09:25:11.895Z,87.48
2022-12-08T09:25:46.480Z,87.40
2022-12-08T09:26:18.409Z,86.28
2022-12-08T09:26:50.157Z,86.84
2022-12-08T09:27:21.870Z,86.60
2022-12-08T09:27:53.465Z,86.69
2022-12-08T09:28:25.043Z,86.35
2022-12-08T09:28:57.757Z,86.52
2022-12-08T09:29:35.350Z,86.70
2022-12-08T09:30:08.927Z,86.78
2022-12-08T09:30:41.174Z,87.42
2022-12-08T09:31:14.381Z,87.22
2022-12-08T09:31:46.275Z,87.10
2022-12-08T09:32:17.915Z,86.85
2022-12-08T09:32:49.504Z,86.64
2022-12-08T09:33:21.086Z,86.51
2022-12-08T09:33:53.002Z,86.11
2022-12-08T09:34:24.626Z,85.98
2022-12-08T09:34:56.258Z,85.74
2022-12-08T09:35:27.934Z,85.72
2022-12-08T09:36:03.990Z,86.07
2022-12-08T09:36:35.601Z,85.91
2022-12-08T09:37:07.195Z,84.85
2022-12-08T09:37:38.930Z,84.66
2022-12-08T09:38:10.566Z,85.02
2022-12-08T09:38:42.183Z,84.40
2022-12-08T09:39:13.778Z,84.07
2022-12-08T09:39:45.373Z,84.03
2022-12-08T09:40:20.325Z,84.52
2022-12-08T09:40:53.533Z,84.73
2022-12-08T09:41:36.872Z,85.06
2022-12-08T09:42:11.648Z,84.91
2022-12-08T09:43:13.384Z,85.34
2022-12-08T09:44:02.977Z,84.96
2022-12-08T09:44:59.824Z,85.24
2022-12-08T09:45:35.332Z,84.50
2022-12-08T09:46:15.676Z,84.30
2022-12-08T09:46:50.750Z,84.47
2022-12-08T09:47:32.087Z,84.33
2022-12-08T09:48:23.527Z,84.31
2022-12-08T09:48:58.295Z,85.24
2022-12-08T09:49:44.612Z,84.74
2022-12-08T09:50:29.242Z,85.05
2022-12-08T09:51:01.530Z,85.23
2022-12-08T09:51:38.155Z,85.35
2022-12-08T09:52:21.327Z,86.32
2022-12-08T09:53:00.007Z,86.68
2022-12-08T09:54:13.698Z,85.41
2022-12-08T09:54:45.396Z,85.84
2022-12-08T09:55:24.491Z,85.99
2022-12-08T09:56:00.282Z,85.61
2022-12-08T09:56:36.170Z,84.79
2022-12-08T09:57:15.642Z,84.76
2022-12-08T09:57:56.627Z,84.89
2022-12-08T09:58:48.330Z,84.87
2022-12-08T09:59:23.970Z,84.98
2022-12-08T10:00:01.410Z,85.24
2022-12-08T10:00:33.956Z,85.21
2022-12-08T10:01:05.658Z,84.31
2022-12-08T10:01:41.978Z,84.72
2022-12-08T10:02:22.280Z,84.31
2022-12-08T10:02:56.108Z,84.26
2022-12-08T10:03:29.853Z,84.30
2022-12-08T10:04:01.898Z,84.29
2022-12-08T10:09:42.011Z,85.03
2022-12-08T10:10:28.342Z,84.53
2022-12-08T10:11:07.832Z,84.21
2022-12-08T10:12:02.905Z,84.17
2022-12-08T10:12:41.791Z,84.88
2022-12-08T10:13:38.259Z,84.83
2022-12-08T10:14:33.839Z,84.50
2022-12-08T10:15:32.868Z,85.38
2022-12-08T10:16:29.779Z,84.73
2022-12-08T10:17:09.216Z,84.91
2022-12-08T10:17:49.558Z,85.27
2022-12-08T10:18:27.320Z,84.70
2022-12-08T10:19:10.856Z,84.75
2022-12-08T10:19:43.390Z,84.82
2022-12-08T10:20:16.908Z,83.86
2022-12-08T10:20:50.525Z,83.59
2022-12-08T10:21:27.013Z,83.81
2022-12-08T10:21:58.731Z,83.98
2022-12-08T10:22:38.706Z,84.33
2022-12-08T10:23:12.942Z,83.65
2022-12-08T10:23:54.467Z,83.77
2022-12-08T10:24:37.467Z,84.15
2022-12-08T10:25:28.726Z,84.04
2022-12-08T10:26:12.662Z,84.03
2022-12-08T10:26:44.911Z,84.02
2022-12-08T10:27:16.515Z,83.74
2022-12-08T10:27:51.414Z,83.66
2022-12-08T10:28:23.015Z,83.65
2022-12-08T10:29:01.207Z,83.71
2022-12-08T10:29:33.603Z,83.42
2022-12-08T10:30:17.219Z,83.04
2022-12-08T10:30:48.840Z,83.14
2022-12-08T10:31:23.171Z,82.99
2022-12-08T10:31:58.189Z,83.08
2022-12-08T10:32:35.394Z,83.85
2022-12-08T10:33:15.527Z,83.59
2022-12-08T10:33:49.622Z,84.57
2022-12-08T10:34:24.360Z,83.40
2022-12-08T10:35:04.474Z,83.11
2022-12-08T10:35:47.994Z,83.33
2022-12-08T10:36:19.611Z,83.15
2022-12-08T10:36:57.105Z,83.39
2022-12-08T10:37:28.897Z,83.44
2022-12-08T10:38:02.886Z,83.71
2022-12-08T10:38:36.693Z,83.70
2022-12-08T10:39:43.862Z,83.01
2022-12-08T10:40:18.723Z,82.84
2022-12-08T10:40:53.396Z,83.38
2022-12-08T10:41:25.106Z,83.23
2022-12-08T10:42:02.805Z,83.41
2022-12-08T10:42:59.816Z,83.22
2022-12-08T10:43:33.231Z,83.46
2022-12-08T10:44:04.959Z,83.39
2022-12-08T10:44:55.636Z,83.51
2022-12-08T10:45:37.708Z,83.09
2022-12-08T10:46:15.362Z,82.94
2022-12-08T10:46:47.160Z,82.98
2022-12-08T10:47:22.230Z,82.82
2022-12-08T10:47:56.854Z,82.48
2022-12-08T10:48:33.364Z,82.90
2022-12-08T10:49:05.006Z,82.91
2022-12-08T10:49:38.688Z,83.08
2022-12-08T10:50:22.764Z,83.12
2022-12-08T10:50:56.619Z,83.31
2022-12-08T10:51:34.141Z,83.49
2022-12-08T10:52:21.845Z,83.29
2022-12-08T10:53:01.239Z,83.56
2022-12-08T10:53:34.297Z,83.30
2022-12-08T10:54:24.317Z,84.21
2022-12-08T10:55:00.559Z,82.36
2022-12-08T10:55:47.167Z,83.34
2022-12-08T10:56:21.009Z,82.48
2022-12-08T10:56:57.620Z,81.91
2022-12-08T10:57:29.213Z,82.00
2022-12-08T10:58:00.785Z,81.95
2022-12-08T10:58:36.599Z,80.93
2022-12-08T10:59:16.417Z,81.66
2022-12-08T10:59:50.907Z,82.14
2022-12-08T11:00:26.365Z,82.07
2022-12-08T11:01:02.869Z,82.24
2022-12-08T11:01:38.101Z,82.66
2022-12-08T11:02:19.343Z,82.59
2022-12-08T11:03:04.733Z,82.65
2022-12-08T11:03:48.902Z,82.93
2022-12-08T11:04:23.863Z,82.82
2022-12-08T11:06:08.986Z,82.54
2022-12-08T11:06:42.776Z,82.52
2022-12-08T11:07:22.932Z,82.47
2022-12-08T11:07:55.702Z,82.19
2022-12-08T11:08:31.100Z,82.61
2022-12-08T11:09:05.008Z,82.56
2022-12-08T11:09:48.744Z,82.82
2022-12-08T11:10:27.143Z,82.43
2022-12-08T11:10:58.746Z,82.01
2022-12-08T11:12:01.198Z,82.04
2022-12-08T11:12:33.607Z,81.77
2022-12-08T11:13:12.516Z,81.74
2022-12-08T11:14:44.139Z,82.04
2022-12-08T11:15:17.432Z,82.01
2022-12-08T11:15:50.119Z,81.88
2022-12-08T11:16:23.126Z,82.01
2022-12-08T11:17:03.630Z,82.25
2022-12-08T11:17:44.004Z,82.51
2022-12-08T11:18:27.027Z,81.74
2022-12-08T11:21:10.963Z,82.67
2022-12-08T11:21:45.431Z,82.61
2022-12-08T11:22:29.638Z,82.18
2022-12-08T11:23:01.259Z,81.85
2022-12-08T11:23:36.034Z,82.00
2022-12-08T11:27:27.740Z,81.91
2022-12-08T11:28:01.346Z,81.99
2022-12-08T11:35:57.651Z,81.62
2022-12-08T11:36:33.182Z,81.46
2022-12-08T11:37:07.171Z,81.60
2022-12-08T11:37:43.639Z,81.68
2022-12-08T11:38:22.377Z,81.64
2022-12-08T11:50:35.603Z,80.50
2022-12-08T11:51:19.612Z,80.44
2022-12-08T11:51:53.707Z,80.37
2022-12-08T11:52:33.927Z,80.49
2022-12-08T11:53:12.819Z,80.88
2022-12-08T12:04:52.164Z,81.13
2022-12-08T12:05:56.977Z,81.70
2022-12-08T12:06:55.061Z,80.86
2022-12-08T12:07:58.084Z,81.01
2022-12-08T12:08:40.119Z,80.87
2022-12-08T12:09:38.062Z,81.24
2022-12-08T12:12:14.118Z,80.78
2022-12-08T12:12:57.542Z,80.63
2022-12-08T12:13:50.898Z,81.00
2022-12-08T12:16:00.402Z,81.52
2022-12-08T12:17:11.113Z,81.01
2022-12-08T12:17:47.439Z,81.24
2022-12-08T12:19:06.494Z,81.28
2022-12-08T12:19:40.200Z,81.76
2022-12-08T12:21:29.369Z,81.52
2022-12-08T12:22:12.195Z,81.70
2022-12-08T12:22:46.644Z,81.46
2022-12-08T12:23:27.805Z,81.74
2022-12-08T12:24:05.058Z,81.88
2022-12-08T12:24:38.701Z,81.96
2022-12-08T12:26:26.471Z,81.99
2022-12-08T12:27:06.816Z,82.09
2022-12-08T12:27:40.640Z,81.38
2022-12-08T12:28:13.523Z,81.48
2022-12-08T12:28:52.788Z,81.75
2022-12-08T12:29:27.907Z,82.15
2022-12-08T12:30:04.372Z,81.92
2022-12-08T12:30:57.968Z,82.20
2022-12-08T12:31:51.715Z,81.56
2022-12-08T12:32:24.470Z,81.96
2022-12-08T12:33:01.178Z,81.75
2022-12-08T12:33:33.513Z,82.02
2022-12-08T12:34:11.112Z,81.72
2022-12-08T12:34:51.067Z,81.86
2022-12-08T12:35:37.992Z,82.14
2022-12-08T12:36:10.866Z,82.22
2022-12-08T12:36:49.394Z,82.12
2022-12-08T12:37:36.590Z,81.86
2022-12-08T12:38:40.256Z,82.06
2022-12-08T12:39:14.250Z,81.67
2022-12-08T12:40:04.898Z,81.72
2022-12-08T12:40:41.611Z,82.01
2022-12-08T12:41:14.466Z,81.66
2022-12-08T12:41:57.287Z,81.52
2022-12-08T12:42:43.405Z,81.41
2022-12-08T12:43:29.837Z,81.77
2022-12-08T12:44:13.137Z,81.89
2022-12-08T12:47:54.279Z,81.25
2022-12-08T12:48:28.478Z,81.55
2022-12-08T12:51:47.822Z,81.20
2022-12-08T12:52:19.517Z,81.34
2022-12-08T12:52:51.134Z,81.37
2022-12-08T12:53:22.764Z,81.41
2022-12-08T12:53:54.446Z,81.34
2022-12-08T12:54:29.354Z,81.37
2022-12-08T12:55:00.894Z,81.52
2022-12-08T12:55:51.148Z,81.47
2022-12-08T12:57:04.321Z,81.19
2022-12-08T12:57:38.059Z,81.78
2022-12-08T12:58:19.739Z,81.14
2022-12-08T12:58:54.030Z,81.28
2022-12-08T12:59:39.749Z,81.16
2022-12-08T13:00:23.650Z,81.19
2022-12-08T13:01:10.369Z,81.16
2022-12-08T13:01:53.731Z,80.91
2022-12-08T13:02:36.456Z,81.08
2022-12-08T13:03:15.043Z,81.18
2022-12-08T13:03:50.604Z,80.95
2022-12-08T13:04:35.406Z,81.10
2022-12-08T13:05:24.868Z,81.48
2022-12-08T13:05:56.655Z,81.65
2022-12-08T13:06:43.263Z,82.14
2022-12-08T13:07:35.830Z,82.12
2022-12-08T13:08:19.455Z,82.53
2022-12-08T13:08:54.307Z,82.24
2022-12-08T13:09:31.596Z,82.02
2022-12-08T13:10:18.071Z,81.76
2022-12-08T13:11:01.923Z,81.63
2022-12-08T13:11:54.320Z,81.24
2022-12-08T13:12:28.250Z,81.38
2022-12-08T13:13:16.461Z,81.93
2022-12-08T13:14:04.447Z,81.48
2022-12-08T13:14:38.869Z,81.41
2022-12-08T13:15:18.836Z,81.18
2022-12-08T13:15:54.946Z,81.48
2022-12-08T13:16:31.538Z,81.63
2022-12-08T13:17:08.088Z,81.24
2022-12-08T13:17:45.299Z,80.84
2022-12-08T13:18:21.135Z,80.72
2022-12-08T13:18:57.922Z,80.76
2022-12-08T13:19:32.195Z,81.60
2022-12-08T13:20:07.179Z,82.13
2022-12-08T13:21:11.187Z,81.92
2022-12-08T13:21:43.061Z,81.13
2022-12-08T13:22:46.921Z,81.55
2022-12-08T13:23:36.609Z,81.61
2022-12-08T13:24:12.883Z,81.64
2022-12-08T13:24:45.310Z,81.44
2022-12-08T13:25:44.686Z,81.08
2022-12-08T13:26:18.058Z,81.12
2022-12-08T13:27:11.066Z,81.04
2022-12-08T13:27:53.495Z,80.27
2022-12-08T13:28:30.676Z,80.45
2022-12-08T13:29:03.611Z,80.12
2022-12-08T13:29:37.365Z,79.71
2022-12-08T13:30:53.744Z,79.62
2022-12-08T13:32:00.950Z,79.58
2022-12-08T13:33:49.138Z,80.07
2022-12-08T13:34:29.662Z,80.27
2022-12-08T13:35:04.204Z,80.65
2022-12-08T13:35:40.284Z,81.10
2022-12-08T13:36:22.511Z,81.24
2022-12-08T13:37:02.379Z,81.79
2022-12-08T13:37:54.483Z,81.34
2022-12-08T13:38:30.193Z,81.07
2022-12-08T13:39:02.229Z,80.69
2022-12-08T13:39:49.623Z,81.40
2022-12-08T13:40:27.725Z,80.84
2022-12-08T13:41:03.088Z,80.40
2022-12-08T13:41:51.749Z,80.48
2022-12-08T13:42:29.490Z,81.06
2022-12-08T13:43:16.484Z,80.72
2022-12-08T13:45:22.273Z,80.99
2022-12-08T13:46:52.864Z,81.23
2022-12-08T13:56:51.488Z,81.77
2022-12-08T13:57:28.824Z,81.15
2022-12-08T13:58:00.676Z,81.18
2022-12-08T13:58:35.222Z,81.46
2022-12-08T13:59:28.235Z,81.73
2022-12-08T14:00:14.590Z,81.74
2022-12-08T14:00:57.711Z,81.52
2022-12-08T14:01:29.433Z,81.44
2022-12-08T14:02:16.055Z,81.98
2022-12-08T14:02:56.115Z,81.99
2022-12-08T14:03:27.966Z,81.83
2022-12-08T14:06:38.202Z,81.44
2022-12-08T14:07:11.807Z,81.61
2022-12-08T14:07:44.553Z,81.72
2022-12-08T14:08:58.910Z,81.64
2022-12-08T14:09:42.326Z,81.82
2022-12-08T14:10:18.935Z,82.15
2022-12-08T14:11:02.251Z,82.17
2022-12-08T14:11:38.307Z,82.29
2022-12-08T14:12:25.877Z,82.31
2022-12-08T14:13:01.783Z,82.29
2022-12-08T14:13:34.342Z,82.54
2022-12-08T14:14:53.676Z,83.83
2022-12-08T14:15:19.975Z,83.55
2022-12-08T14:15:51.988Z,83.68
2022-12-08T14:16:29.537Z,83.99
2022-12-08T14:17:06.155Z,84.84
2022-12-08T14:17:40.247Z,84.25
2022-12-08T14:18:27.177Z,83.91
2022-12-08T14:19:05.513Z,83.23
2022-12-08T14:19:37.228Z,83.03
2022-12-08T14:20:11.652Z,83.09
2022-12-08T14:21:12.569Z,83.24
2022-12-08T14:21:36.381Z,83.84
2022-12-08T14:22:17.213Z,84.30
2022-12-08T14:22:50.217Z,83.43
2022-12-08T14:23:21.770Z,82.27
2022-12-08T14:23:53.363Z,82.47
2022-12-08T14:24:30.488Z,83.39
2022-12-08T14:25:03.949Z,83.29
2022-12-08T14:25:36.202Z,82.97
2022-12-08T14:26:10.479Z,83.84
2022-12-08T14:26:44.339Z,83.29
2022-12-08T14:27:19.161Z,82.81
2022-12-08T14:28:02.590Z,83.11
2022-12-08T14:28:34.317Z,83.28
2022-12-08T14:29:08.863Z,83.70
2022-12-08T14:29:44.883Z,83.68
2022-12-08T14:30:34.474Z,83.37
2022-12-08T14:31:06.820Z,83.35
2022-12-08T14:31:38.556Z,83.54
2022-12-08T14:32:28.537Z,83.87
2022-12-08T14:33:02.434Z,84.01
2022-12-08T14:33:34.096Z,83.56
2022-12-08T14:34:05.690Z,83.67
2022-12-08T14:34:41.095Z,83.46
2022-12-08T14:35:29.511Z,83.25
2022-12-08T14:36:01.133Z,83.52
2022-12-08T14:36:33.873Z,83.53
2022-12-08T14:37:05.591Z,83.64
2022-12-08T14:38:03.753Z,83.76
2022-12-08T14:38:35.535Z,83.76
2022-12-08T14:39:08.944Z,84.70
2022-12-08T14:39:40.894Z,84.46
2022-12-08T14:40:23.138Z,84.04
2022-12-08T14:41:09.487Z,84.46
2022-12-08T14:41:41.094Z,84.35
2022-12-08T14:42:24.728Z,83.31
2022-12-08T14:43:08.218Z,82.98
2022-12-08T14:43:41.059Z,83.09
2022-12-08T14:44:23.910Z,83.35
2022-12-08T14:45:02.050Z,83.29
2022-12-08T14:45:40.267Z,83.16
2022-12-08T14:46:23.052Z,82.69
2022-12-08T14:47:09.661Z,82.68
2022-12-08T14:47:41.462Z,82.59
2022-12-08T14:48:28.148Z,82.50
2022-12-08T14:48:59.809Z,82.79
2022-12-08T14:49:34.181Z,83.26
2022-12-08T14:50:44.638Z,82.94
2022-12-08T14:51:18.887Z,83.16
2022-12-08T14:51:50.514Z,83.25
2022-12-08T14:52:22.795Z,83.34
2022-12-08T14:52:54.463Z,83.61
2022-12-08T14:53:28.186Z,83.34
2022-12-08T14:54:08.533Z,83.39
2022-12-08T14:54:43.240Z,83.53
2022-12-08T14:55:15.934Z,83.41
2022-12-08T14:55:49.195Z,83.56
2022-12-08T14:56:24.123Z,83.41
2022-12-08T14:56:56.914Z,83.33
2022-12-08T14:57:34.624Z,83.26
2022-12-08T14:58:06.534Z,83.37
2022-12-08T14:58:38.371Z,83.11
2022-12-08T14:59:34.829Z,83.10
2022-12-08T15:00:18.791Z,83.26
2022-12-08T15:00:54.552Z,83.32
2022-12-08T15:01:26.322Z,83.52
2022-12-08T15:02:16.243Z,83.72
2022-12-08T15:02:48.169Z,84.09
2022-12-08T15:03:22.144Z,84.15
2022-12-08T15:03:59.950Z,84.15
2022-12-08T15:04:31.611Z,84.13
2022-12-08T15:05:10.341Z,84.35
2022-12-08T15:42:38.019Z,82.98
2022-12-08T15:43:11.330Z,82.91
2022-12-08T15:43:43.016Z,83.05
2022-12-08T15:44:14.607Z,82.94
2022-12-08T15:44:46.218Z,82.81
2022-12-08T15:45:17.854Z,82.97
2022-12-08T15:46:00.679Z,83.22
2022-12-08T15:46:32.332Z,82.73
2022-12-08T15:47:04.374Z,83.20
2022-12-08T15:47:36.029Z,83.05
2022-12-08T15:48:07.673Z,83.19
2022-12-08T15:48:39.320Z,83.15
2022-12-08T15:49:17.401Z,82.97
2022-12-08T15:49:51.327Z,82.99
2022-12-08T15:50:23.844Z,83.38
2022-12-08T15:50:56.286Z,83.10
2022-12-08T15:51:27.876Z,83.11
2022-12-08T15:52:10.660Z,83.46
2022-12-08T15:52:43.933Z,83.96
2022-12-08T15:53:16.474Z,83.99
2022-12-08T15:53:48.064Z,83.89
2022-12-08T15:54:19.766Z,83.67
2022-12-08T15:54:51.531Z,83.19
2022-12-08T15:55:23.242Z,83.43
2022-12-08T15:57:17.809Z,83.33
2022-12-08T15:58:31.210Z,83.44
2022-12-08T15:58:55.119Z,83.53
2022-12-08T15:59:27.971Z,83.34
2022-12-08T15:59:59.591Z,83.09
2022-12-08T16:01:26.621Z,83.18
2022-12-08T16:01:58.465Z,83.20
2022-12-08T16:02:49.194Z,83.35
2022-12-08T16:06:57.458Z,83.21
2022-12-08T16:07:57.620Z,83.24
2022-12-08T16:08:46.235Z,83.17
2022-12-08T16:09:33.784Z,83.22
2022-12-08T16:10:07.094Z,83.14
2022-12-08T16:11:10.728Z,83.10
2022-12-08T16:12:06.034Z,83.28
2022-12-08T16:14:16.696Z,83.01
2022-12-08T16:15:47.015Z,83.12
2022-12-08T16:15:57.176Z,83.04
2022-12-08T16:16:31.143Z,82.95
2022-12-08T16:17:02.735Z,83.15
2022-12-08T16:17:35.168Z,83.07
2022-12-08T16:18:07.707Z,83.31
2022-12-08T16:18:40.192Z,83.23
2022-12-08T16:19:14.622Z,83.21
2022-12-08T16:19:46.289Z,83.10
2022-12-08T16:20:18.319Z,83.10
2022-12-08T16:22:17.544Z,83.33
2022-12-08T16:23:42.359Z,83.21
2022-12-08T16:24:15.564Z,83.03
2022-12-08T16:24:47.173Z,83.04
2022-12-08T16:25:20.952Z,83.25
2022-12-08T16:26:20.361Z,83.46
2022-12-08T16:27:51.201Z,83.15
2022-12-08T16:28:53.375Z,83.03
2022-12-08T16:29:22.654Z,83.18
2022-12-08T16:29:55.560Z,83.22
2022-12-08T16:30:27.185Z,83.11
2022-12-08T16:30:59.026Z,83.23
2022-12-08T16:31:31.030Z,83.34
2022-12-08T16:32:02.763Z,83.28
2022-12-08T16:32:34.439Z,83.15
2022-12-08T16:33:06.039Z,83.00
2022-12-08T16:33:37.703Z,82.92
2022-12-08T16:34:09.317Z,82.98
2022-12-08T16:34:41.571Z,83.10
2022-12-08T16:35:13.903Z,83.06
2022-12-08T16:35:45.569Z,83.06
2022-12-08T16:36:17.169Z,83.03
2022-12-08T16:36:49.003Z,83.11
2022-12-08T16:37:26.305Z,83.28
2022-12-08T16:37:58.287Z,83.13
2022-12-08T16:38:29.901Z,83.20
2022-12-08T16:39:01.619Z,83.13
2022-12-08T16:39:34.205Z,83.24
2022-12-08T16:40:07.380Z,83.13
2022-12-08T16:40:58.977Z,83.24
2022-12-08T16:41:49.100Z,83.26
2022-12-08T16:42:40.199Z,83.15
2022-12-08T16:43:11.771Z,83.45
2022-12-08T16:43:43.345Z,83.61
2022-12-08T16:44:14.960Z,83.74
2022-12-08T16:44:46.559Z,84.11
2022-12-08T16:45:26.144Z,84.27
2022-12-08T16:45:57.807Z,84.02
2022-12-08T16:46:29.652Z,83.74
2022-12-08T16:47:08.999Z,84.63
2022-12-08T16:47:42.979Z,84.11
2022-12-08T16:48:15.531Z,84.41
2022-12-08T16:48:47.192Z,84.61
2022-12-08T16:49:18.812Z,84.38
2022-12-08T16:49:50.661Z,84.16
2022-12-08T16:50:28.112Z,84.05
2022-12-08T16:50:59.766Z,85.23
2022-12-08T16:51:31.340Z,84.57
2022-12-08T16:52:02.902Z,84.50
2022-12-08T16:52:34.698Z,84.52
2022-12-08T16:53:11.103Z,84.70
2022-12-08T16:53:42.807Z,84.99
2022-12-08T16:54:14.391Z,85.23
2022-12-08T16:54:46.051Z,84.72
2022-12-08T16:55:19.495Z,84.21
2022-12-08T16:55:51.180Z,83.98
2022-12-08T16:56:28.739Z,84.03
2022-12-08T16:57:03.743Z,84.13
2022-12-08T16:57:35.453Z,84.30
2022-12-08T16:58:07.264Z,84.29
2022-12-08T16:58:38.960Z,84.46
2022-12-08T16:59:10.568Z,84.51
2022-12-08T16:59:42.258Z,84.92
2022-12-08T17:00:19.597Z,85.18
2022-12-08T17:00:51.241Z,84.63
2022-12-08T17:01:23.891Z,84.47
2022-12-08T17:01:55.886Z,84.71
2022-12-08T17:02:27.532Z,85.45
2022-12-08T17:02:59.133Z,85.37
2022-12-08T17:03:31.354Z,85.19
2022-12-08T17:04:54.810Z,85.02
2022-12-08T17:05:27.021Z,85.15
2022-12-08T17:05:58.683Z,85.09
2022-12-08T17:06:30.291Z,85.18
2022-12-08T17:07:02.029Z,84.95
2022-12-08T17:07:35.625Z,84.73
2022-12-08T17:08:07.343Z,84.93
2022-12-08T17:08:40.583Z,84.89
2022-12-08T17:09:12.206Z,84.80
2022-12-08T17:09:43.957Z,85.00
2022-12-08T17:10:19.020Z,85.17
2022-12-08T17:11:07.293Z,85.08
2022-12-08T17:11:42.902Z,84.90
2022-12-08T17:12:14.791Z,85.17
2022-12-08T17:12:47.001Z,85.13
2022-12-08T17:13:18.572Z,84.57
2022-12-08T17:13:50.167Z,84.68
2022-12-08T17:14:21.737Z,85.10
2022-12-08T17:14:53.304Z,85.28
2022-12-08T17:15:26.121Z,85.15
2022-12-08T17:15:57.729Z,85.34
2022-12-08T17:16:29.426Z,85.44
2022-12-08T17:17:01.142Z,85.33
2022-12-08T17:17:35.406Z,85.29
2022-12-08T17:18:06.991Z,85.48
2022-12-08T17:18:38.760Z,85.41
2022-12-08T17:19:13.325Z,85.63
2022-12-08T17:19:44.910Z,84.97
2022-12-08T17:20:20.532Z,85.04